Time;durP1;ratioP1;P1;durP2;ratioP2;P2;SDS_P1;SDS_P2;PMS_P1;PMS_P2;Temp;Humidity;BMP_temperature;BMP_pressure;BME280_temperature;BME280_humidity;BME280_pressure;Samples;Min_cycle;Max_cycle;Signal;HPM_P1;HPM_P2
2021/08/19 00:02:15;;;;;;;6.20;2.90;;;512.60;1715.20;;;;;;5155229;27;20404;-75
2021/08/19 00:04:41;;;;;;;7.05;2.95;;;512.60;1689.60;;;;;;5154727;27;20022;-77
2021/08/19 00:07:08;;;;;;;5.60;3.20;;;512.50;1715.20;;;;;;5154871;27;20487;-76
2021/08/19 00:09:37;;;;;;;5.40;2.67;;;512.40;1715.20;;;;;;5151850;27;20019;-76
2021/08/19 00:12:07;;;;;;;11.52;3.55;;;512.30;1715.20;;;;;;5154827;27;20022;-76
2021/08/19 00:14:34;;;;;;;5.80;2.70;;;512.00;1715.20;;;;;;5135997;27;20375;-76
2021/08/19 00:17:01;;;;;;;6.93;3.70;;;512.10;1715.20;;;;;;5154571;27;20348;-75
2021/08/19 00:19:27;;;;;;;6.93;2.95;;;512.00;1740.80;;;;;;5154738;27;20011;-77
2021/08/19 00:21:53;;;;;;;5.32;2.67;;;487.30;1740.80;;;;;;5154215;27;20019;-76
2021/08/19 00:24:19;;;;;;;7.47;3.22;;;512.00;1715.20;;;;;;5154315;27;20443;-77
2021/08/19 00:26:44;;;;;;;6.90;3.22;;;512.00;1689.60;;;;;;5154483;27;20479;-74
2021/08/19 00:29:10;;;;;;;9.73;3.03;;;512.00;1689.60;;;;;;5154669;27;20091;-75
2021/08/19 00:31:36;;;;;;;8.98;3.80;;;512.10;1664.00;;;;;;5154637;27;20102;-76
2021/08/19 00:34:02;;;;;;;9.95;3.63;;;512.00;1664.00;;;;;;5154129;27;20019;-76
2021/08/19 00:36:27;;;;;;;6.50;3.55;;;512.10;1638.40;;;;;;5154604;27;20063;-76
2021/08/19 00:38:53;;;;;;;6.90;3.00;;;512.10;1664.00;;;;;;5154319;27;20071;-76
2021/08/19 00:41:21;;;;;;;7.65;3.67;;;512.00;1664.00;;;;;;5154200;27;20102;-75
2021/08/19 00:43:49;;;;;;;11.48;4.18;;;512.00;1664.00;;;;;;5135696;27;20450;-76
2021/08/19 00:46:47;;;;;;;8.25;3.65;;;512.00;1664.00;;;;;;5154008;27;20054;-76
2021/08/19 00:49:13;;;;;;;6.10;3.00;;;487.20;1689.60;;;;;;5069876;28;20037;-76
2021/08/19 00:51:45;;;;;;;6.78;3.08;;;487.20;1715.20;;;;;;5069888;28;20060;-76
2021/08/19 00:54:14;;;;;;;6.25;2.92;;;487.20;1740.80;;;;;;5070335;28;20060;-77
2021/08/19 00:56:41;;;;;;;8.13;3.33;;;487.10;1766.40;;;;;;5069695;28;20029;-77
2021/08/19 00:59:11;;;;;;;12.90;3.58;;;487.10;1766.40;;;;;;5070201;28;20128;-77
2021/08/19 01:01:37;;;;;;;18.30;4.88;;;487.10;1817.60;;;;;;5070057;28;20153;-76
2021/08/19 01:04:07;;;;;;;15.32;4.95;;;487.10;1868.80;;;;;;5070211;28;20016;-77
2021/08/19 01:06:34;;;;;;;9.45;4.00;;;487.00;1868.80;;;;;;5069983;28;20036;-76
2021/08/19 01:09:00;;;;;;;9.02;3.63;;;487.10;1843.20;;;;;;5070307;28;20036;-76
2021/08/19 01:11:26;;;;;;;8.00;3.25;;;487.10;1868.80;;;;;;5069735;28;20585;-76
2021/08/19 01:13:52;;;;;;;6.63;3.75;;;487.10;1868.80;;;;;;5069851;28;20024;-77
2021/08/19 01:16:18;;;;;;;6.63;3.05;;;487.10;1817.60;;;;;;5073396;28;20017;-75
2021/08/19 01:18:45;;;;;;;6.82;3.00;;;487.00;1868.80;;;;;;5073794;28;20488;-77
2021/08/19 01:21:16;;;;;;;12.65;3.75;;;486.80;1843.20;;;;;;5073840;28;20147;-76
2021/08/19 01:23:42;;;;;;;9.85;2.95;;;486.70;1843.20;;;;;;5077272;27;20039;-76
2021/08/19 01:26:12;;;;;;;7.43;3.60;;;486.60;1843.20;;;;;;5136913;27;20019;-76
2021/08/19 01:28:39;;;;;;;10.57;3.50;;;486.60;1868.80;;;;;;5134579;27;20073;-75
2021/08/19 01:31:12;;;;;;;7.32;3.50;;;486.50;1868.80;;;;;;5137350;27;20019;-76
2021/08/19 01:33:41;;;;;;;8.68;4.20;;;486.40;1894.40;;;;;;5134488;27;20019;-77
2021/08/19 01:36:07;;;;;;;7.70;3.58;;;486.50;1868.80;;;;;;5137055;27;20029;-76
2021/08/19 01:38:34;;;;;;;9.27;3.58;;;486.40;1894.40;;;;;;5137026;27;20056;-77
2021/08/19 01:41:00;;;;;;;5.20;3.03;;;461.70;1894.40;;;;;;5136903;27;20023;-76
2021/08/19 01:43:28;;;;;;;5.95;3.00;;;461.70;1894.40;;;;;;5136866;27;20102;-78
2021/08/19 01:46:06;;;;;;;9.55;3.63;;;461.60;1894.40;;;;;;5135338;27;20085;-78
2021/08/19 01:48:33;;;;;;;8.23;3.60;;;461.60;1920.00;;;;;;5135202;27;20472;-76
2021/08/19 01:50:59;;;;;;;6.32;3.38;;;461.60;1920.00;;;;;;5131816;27;20511;-77
2021/08/19 01:53:25;;;;;;;10.95;3.17;;;461.50;1920.00;;;;;;5138170;27;20015;-77
2021/08/19 01:55:52;;;;;;;13.40;3.88;;;461.40;1945.60;;;;;;5136491;27;20024;-77
2021/08/19 01:58:19;;;;;;;9.52;3.83;;;461.30;1945.60;;;;;;5133852;27;20104;-77
2021/08/19 02:00:45;;;;;;;12.88;3.65;;;461.30;1920.00;;;;;;5134816;27;20503;-77
2021/08/19 02:03:10;;;;;;;8.75;4.18;;;461.30;1920.00;;;;;;5136530;27;20019;-76
2021/08/19 02:05:40;;;;;;;7.25;3.72;;;461.20;1920.00;;;;;;5136309;27;20023;-76
2021/08/19 02:08:07;;;;;;;9.38;4.47;;;461.20;1894.40;;;;;;5136260;27;20464;-75
2021/08/19 02:10:34;;;;;;;9.50;4.30;;;461.10;1920.00;;;;;;5136070;27;20019;-76
2021/08/19 02:13:00;;;;;;;9.07;4.35;;;461.10;1920.00;;;;;;5133814;27;20025;-76
2021/08/19 02:15:26;;;;;;;10.65;4.22;;;461.10;1894.40;;;;;;5136090;27;20027;-75
2021/08/19 02:17:52;;;;;;;8.50;4.00;;;461.10;1894.40;;;;;;5136120;27;20023;-77
2021/08/19 02:20:17;;;;;;;7.97;4.10;;;461.10;1894.40;;;;;;5135760;27;20022;-77
2021/08/19 02:22:43;;;;;;;8.80;4.43;;;461.10;1894.40;;;;;;5138303;27;20107;-77
2021/08/19 02:25:09;;;;;;;8.38;4.40;;;461.10;1920.00;;;;;;5135767;27;20446;-75
2021/08/19 02:27:35;;;;;;;7.88;4.15;;;461.00;1920.00;;;;;;5135512;27;20027;-76
2021/08/19 02:30:01;;;;;;;12.00;4.10;;;461.00;1945.60;;;;;;5136098;27;20019;-77
2021/08/19 02:32:26;;;;;;;9.73;4.07;;;461.10;1920.00;;;;;;5134598;27;20019;-76
2021/08/19 02:34:52;;;;;;;7.18;4.07;;;461.10;1945.60;;;;;;5135975;27;20495;-76
2021/08/19 02:37:20;;;;;;;12.65;4.32;;;461.10;1945.60;;;;;;5135880;27;20454;-74
2021/08/19 02:39:46;;;;;;;12.35;5.10;;;461.10;1945.60;;;;;;5136292;27;20019;-76
2021/08/19 02:42:11;;;;;;;11.25;4.28;;;461.10;1945.60;;;;;;5135658;27;20387;-76
2021/08/19 02:44:37;;;;;;;10.18;4.38;;;461.00;1971.20;;;;;;5135683;27;20016;-76
2021/08/19 02:47:03;;;;;;;8.60;4.82;;;461.00;1971.20;;;;;;5117253;27;20496;-76
2021/08/19 02:49:29;;;;;;;10.30;3.88;;;461.00;1971.20;;;;;;5135638;27;20480;-78
2021/08/19 02:51:54;;;;;;;10.90;4.15;;;461.10;1971.20;;;;;;5137935;27;20034;-79
2021/08/19 02:54:20;;;;;;;15.50;5.30;;;461.10;1971.20;;;;;;5132824;27;20015;-76
2021/08/19 02:56:46;;;;;;;10.00;4.63;;;461.10;1945.60;;;;;;5135384;27;20043;-78
2021/08/19 02:59:11;;;;;;;9.20;4.65;;;461.30;1920.00;;;;;;5135473;27;20076;-77
2021/08/19 03:01:37;;;;;;;10.65;4.15;;;461.30;1894.40;;;;;;5135321;27;20076;-77
2021/08/19 03:04:03;;;;;;;10.68;4.78;;;461.40;1894.40;;;;;;5135507;27;20011;-76
2021/08/19 03:06:29;;;;;;;9.95;4.95;;;461.40;1894.40;;;;;;5135434;27;20380;-74
2021/08/19 03:08:54;;;;;;;8.82;4.60;;;461.40;1894.40;;;;;;5135435;27;20023;-76
2021/08/19 03:11:20;;;;;;;13.55;4.25;;;461.50;1868.80;;;;;;5134852;27;20011;-76
2021/08/19 03:13:46;;;;;;;15.70;4.68;;;461.40;1894.40;;;;;;5135219;27;20408;-76
2021/08/19 03:16:12;;;;;;;10.80;4.68;;;461.30;1894.40;;;;;;5135243;27;20058;-76
2021/08/19 03:18:37;;;;;;;10.52;4.70;;;461.40;1894.40;;;;;;5134668;27;20024;-76
2021/08/19 03:21:04;;;;;;;9.82;4.20;;;461.40;1894.40;;;;;;5134957;27;20023;-76
2021/08/19 03:23:30;;;;;;;10.55;4.07;;;461.40;1894.40;;;;;;5135111;27;20097;-77
2021/08/19 03:25:56;;;;;;;12.18;4.45;;;461.50;1868.80;;;;;;5113771;27;20040;-77
2021/08/19 03:28:23;;;;;;;8.27;4.28;;;461.60;1894.40;;;;;;5110225;28;20482;-78
2021/08/19 03:30:53;;;;;;;11.15;4.82;;;461.50;1894.40;;;;;;5105347;28;20031;-78
2021/08/19 03:33:20;;;;;;;11.35;4.95;;;461.40;1894.40;;;;;;5106381;28;20027;-76
2021/08/19 03:35:46;;;;;;;12.15;4.63;;;461.40;1894.40;;;;;;5094650;28;20492;-77
2021/08/19 03:38:12;;;;;;;8.48;4.38;;;461.70;1894.40;;;;;;5112293;28;20457;-77
2021/08/19 03:40:38;;;;;;;12.38;4.38;;;461.30;1920.00;;;;;;5109704;28;20016;-76
2021/08/19 03:43:04;;;;;;;8.93;4.18;;;461.30;1920.00;;;;;;5095300;28;20027;-77
2021/08/19 03:45:30;;;;;;;8.68;4.60;;;461.30;1920.00;;;;;;5110316;28;20019;-75
2021/08/19 03:47:56;;;;;;;10.23;4.72;;;461.40;1894.40;;;;;;5107856;28;20034;-77
2021/08/19 03:50:23;;;;;;;8.27;4.45;;;461.40;1894.40;;;;;;5109949;28;20020;-77
2021/08/19 03:52:49;;;;;;;9.27;4.60;;;461.30;1894.40;;;;;;5112664;27;20050;-77
2021/08/19 03:55:15;;;;;;;9.60;4.90;;;461.30;1894.40;;;;;;5110194;28;20030;-76
2021/08/19 03:57:41;;;;;;;11.18;4.65;;;461.20;1894.40;;;;;;5109594;28;20035;-77
2021/08/19 04:00:07;;;;;;;12.65;5.70;;;461.20;1920.00;;;;;;5109773;28;20461;-78
2021/08/19 04:02:33;;;;;;;15.07;5.32;;;461.10;1920.00;;;;;;5108884;28;20029;-78
2021/08/19 04:04:59;;;;;;;10.13;4.55;;;461.10;1920.00;;;;;;5107471;28;20259;-78
2021/08/19 04:07:25;;;;;;;10.25;5.22;;;461.10;1945.60;;;;;;5091219;28;20030;-77
2021/08/19 04:09:51;;;;;;;10.48;4.82;;;461.10;1945.60;;;;;;5112140;28;20085;-77
2021/08/19 04:12:17;;;;;;;10.90;5.05;;;461.10;1945.60;;;;;;5109159;28;20066;-78
2021/08/19 04:14:43;;;;;;;11.85;5.32;;;461.20;1945.60;;;;;;5108886;28;20049;-79
2021/08/19 04:17:08;;;;;;;11.82;5.65;;;461.20;1945.60;;;;;;5094591;28;20031;-80
2021/08/19 04:19:34;;;;;;;11.95;5.18;;;461.10;1945.60;;;;;;5110412;28;20095;-79
2021/08/19 04:22:00;;;;;;;8.90;4.88;;;461.10;1971.20;;;;;;5109795;27;20042;-78
2021/08/19 04:24:26;;;;;;;13.07;4.63;;;461.10;1971.20;;;;;;5116041;27;20488;-78
2021/08/19 04:26:51;;;;;;;12.27;5.00;;;461.00;1996.80;;;;;;5130173;27;20514;-77
2021/08/19 04:29:17;;;;;;;10.52;5.07;;;461.00;1971.20;;;;;;5130415;27;20016;-78
2021/08/19 04:31:43;;;;;;;14.15;5.38;;;461.00;1971.20;;;;;;5129723;27;20019;-78
2021/08/19 04:34:08;;;;;;;9.55;5.55;;;461.10;1971.20;;;;;;5128348;27;20020;-78
2021/08/19 04:36:34;;;;;;;9.63;5.72;;;461.10;1971.20;;;;;;5129650;27;20019;-78
2021/08/19 04:39:00;;;;;;;10.35;4.78;;;461.10;1971.20;;;;;;5131019;27;20115;-77
2021/08/19 04:41:26;;;;;;;8.88;4.75;;;461.10;1971.20;;;;;;5129753;27;20019;-77
2021/08/19 04:43:52;;;;;;;12.18;5.22;;;461.00;1996.80;;;;;;5130241;27;20034;-78
2021/08/19 04:46:17;;;;;;;9.25;5.35;;;461.10;1996.80;;;;;;5128003;27;20052;-78
2021/08/19 04:48:43;;;;;;;13.07;5.55;;;461.10;1996.80;;;;;;5129907;27;20483;-77
2021/08/19 04:51:09;;;;;;;11.70;5.45;;;461.10;1996.80;;;;;;5126871;27;20020;-77
2021/08/19 04:53:36;;;;;;;12.73;5.95;;;461.10;1996.80;;;;;;5128118;27;20038;-78
2021/08/19 04:56:02;;;;;;;12.25;5.15;;;461.10;1996.80;;;;;;5130412;28;20050;-78
2021/08/19 04:58:28;;;;;;;11.55;5.30;;;461.20;1996.80;;;;;;5130129;28;20093;-78
2021/08/19 05:00:55;;;;;;;10.10;5.03;;;461.30;1996.80;;;;;;5126508;28;20460;-78
2021/08/19 05:03:21;;;;;;;12.15;4.97;;;461.40;1971.20;;;;;;5117465;28;20032;-78
2021/08/19 05:05:46;;;;;;;13.60;5.13;;;461.40;1971.20;;;;;;5130308;28;20514;-79
2021/08/19 05:08:13;;;;;;;9.88;4.85;;;461.60;1971.20;;;;;;5130376;28;20022;-75
2021/08/19 05:10:38;;;;;;;9.75;4.68;;;461.50;1971.20;;;;;;5130329;28;20026;-79
2021/08/19 05:13:04;;;;;;;12.93;4.63;;;461.50;1996.80;;;;;;5124523;28;20012;-79
2021/08/19 05:15:30;;;;;;;12.50;4.97;;;461.60;1996.80;;;;;;5130355;28;20019;-77
2021/08/19 05:17:56;;;;;;;21.67;5.53;;;461.70;1996.80;;;;;;5131328;28;20481;-79
2021/08/19 05:20:22;;;;;;;12.98;5.03;;;461.70;1996.80;;;;;;5129614;28;20027;-77
2021/08/19 05:22:48;;;;;;;19.25;10.93;;;461.70;1971.20;;;;;;5132206;27;20501;-76
2021/08/19 05:25:13;;;;;;;15.93;9.13;;;486.50;1945.60;;;;;;5140123;27;20126;-76
2021/08/19 05:27:39;;;;;;;14.40;6.70;;;486.50;1945.60;;;;;;5132942;28;20408;-78
2021/08/19 05:30:06;;;;;;;17.10;7.80;;;486.40;1945.60;;;;;;5133215;28;20015;-76
2021/08/19 05:32:32;;;;;;;17.05;10.55;;;486.60;1945.60;;;;;;5132927;28;20023;-77
2021/08/19 05:35:01;;;;;;;17.02;6.50;;;486.60;1971.20;;;;;;5132886;28;20357;-75
2021/08/19 05:37:27;;;;;;;12.65;5.60;;;486.60;1996.80;;;;;;5129965;28;20042;-77
2021/08/19 05:39:53;;;;;;;13.68;5.88;;;486.70;1996.80;;;;;;5113647;28;20023;-74
2021/08/19 05:42:18;;;;;;;10.88;5.45;;;486.60;2022.40;;;;;;5130885;28;20019;-75
2021/08/19 05:44:44;;;;;;;10.95;5.70;;;486.60;1996.80;;;;;;5130900;28;20088;-78
2021/08/19 05:47:10;;;;;;;16.23;5.18;;;486.80;1996.80;;;;;;5131534;28;20068;-75
2021/08/19 05:49:44;;;;;;;8.95;5.35;;;486.80;1996.80;;;;;;5130891;28;20020;-76
2021/08/19 05:52:12;;;;;;;12.55;5.50;;;486.90;1971.20;;;;;;5132771;27;20091;-76
2021/08/19 05:54:38;;;;;;;17.75;5.95;;;487.10;1971.20;;;;;;5131831;28;20019;-76
2021/08/19 05:57:04;;;;;;;11.40;4.90;;;487.10;1945.60;;;;;;5132802;28;20077;-75
2021/08/19 05:59:30;;;;;;;13.32;4.63;;;487.10;1945.60;;;;;;5132653;28;20012;-76
2021/08/19 06:01:56;;;;;;;12.93;5.68;;;487.30;1920.00;;;;;;5135125;27;20183;-74
2021/08/19 06:04:21;;;;;;;13.95;4.88;;;512.00;1920.00;;;;;;5137155;27;20409;-75
2021/08/19 06:06:47;;;;;;;18.60;4.97;;;512.10;1920.00;;;;;;5136122;27;20029;-76
2021/08/19 06:09:14;;;;;;;9.93;5.15;;;512.20;1920.00;;;;;;5130594;27;20022;-76
2021/08/19 06:11:40;;;;;;;9.10;5.03;;;512.40;1894.40;;;;;;5124446;27;20034;-76
2021/08/19 08:55:22;;;;;;;4.82;2.88;;;614.70;1408.00;;;;;;5117041;27;20405;-80
2021/08/19 08:57:49;;;;;;;5.30;3.45;;;640.20;1305.60;;;;;;5107072;28;20036;-77
2021/08/19 09:00:15;;;;;;;5.57;3.28;;;640.10;1305.60;;;;;;5108795;28;20446;-78
2021/08/19 09:02:41;;;;;;;6.03;2.78;;;640.20;1280.00;;;;;;5105060;28;20032;-78
2021/08/19 09:05:24;;;;;;;5.57;2.60;;;640.10;1280.00;;;;;;5109429;28;20097;-79
2021/08/19 09:07:58;;;;;;;6.13;2.60;;;640.20;1280.00;;;;;;5091704;28;20016;-77
2021/08/19 09:10:30;;;;;;;4.70;2.72;;;640.10;1254.40;;;;;;5084906;28;20031;-79
2021/08/19 09:13:04;;;;;;;4.05;2.33;;;640.20;1228.80;;;;;;5089600;28;20111;-79
2021/08/19 09:15:30;;;;;;;3.55;2.20;;;640.20;1254.40;;;;;;5093934;28;20103;-78
2021/08/19 09:17:56;;;;;;;4.30;2.67;;;640.30;1280.00;;;;;;5091155;28;20467;-79
2021/08/19 09:20:38;;;;;;;5.25;2.38;;;640.30;1254.40;;;;;;5096551;28;20495;-78
2021/08/19 09:23:07;;;;;;;10.73;2.50;;;640.50;1280.00;;;;;;5102432;27;20086;-77
2021/08/19 09:25:38;;;;;;;8.68;2.92;;;640.60;1228.80;;;;;;5084390;28;20536;-78
2021/08/19 09:28:17;;;;;;;5.18;2.30;;;640.60;1254.40;;;;;;5087426;28;20013;-78
2021/08/19 09:30:50;;;;;;;10.73;2.60;;;640.70;1254.40;;;;;;5088192;28;20028;-78
2021/08/19 09:33:23;;;;;;;3.35;2.13;;;640.90;1254.40;;;;;;5095492;28;20100;-75
2021/08/19 09:35:50;;;;;;;4.07;2.28;;;665.60;1254.40;;;;;;5095228;28;20544;-77
2021/08/19 09:38:20;;;;;;;6.28;2.92;;;665.70;1280.00;;;;;;5099149;28;20491;-78
2021/08/19 09:41:14;;;;;;;4.43;2.42;;;666.00;1280.00;;;;;;5089380;28;20385;-77
2021/08/19 09:43:43;;;;;;;8.52;2.42;;;666.10;1280.00;;;;;;5088681;28;20094;-79
2021/08/19 09:46:10;;;;;;;7.03;2.22;;;666.20;1228.80;;;;;;5089802;28;20031;-79
2021/08/19 09:48:36;;;;;;;4.82;2.20;;;666.30;1228.80;;;;;;5096180;28;20055;-78
2021/08/19 09:51:13;;;;;;;4.15;2.10;;;666.20;1228.80;;;;;;5089651;28;20086;-78
2021/08/19 09:53:47;;;;;;;7.88;2.28;;;666.50;1203.20;;;;;;5088635;28;20846;-76
2021/08/19 09:56:25;;;;;;;4.18;2.35;;;691.20;1203.20;;;;;;5074404;28;20025;-78
2021/08/19 09:58:51;;;;;;;4.65;2.50;;;691.30;1228.80;;;;;;5072935;28;20090;-76
2021/08/19 10:01:16;;;;;;;5.38;2.17;;;691.30;1203.20;;;;;;5075156;28;20473;-75
2021/08/19 10:03:42;;;;;;;5.20;2.50;;;691.60;1177.60;;;;;;5080353;28;20036;-76
2021/08/19 10:06:09;;;;;;;5.25;2.42;;;691.80;1177.60;;;;;;5087642;28;20020;-75
2021/08/19 10:08:34;;;;;;;5.93;2.13;;;691.70;1152.00;;;;;;5087525;28;20073;-77
2021/08/19 10:11:01;;;;;;;5.57;2.90;;;691.80;1126.40;;;;;;5090315;28;20397;-77
2021/08/19 10:13:29;;;;;;;4.05;2.08;;;692.10;1177.60;;;;;;5095864;28;20023;-78
2021/08/19 10:15:55;;;;;;;4.65;2.22;;;691.90;1177.60;;;;;;5080998;28;20025;-76
2021/08/19 10:18:27;;;;;;;5.38;1.98;;;692.10;1126.40;;;;;;5075702;28;20515;-77
2021/08/19 10:20:58;;;;;;;3.45;2.03;;;716.90;1152.00;;;;;;5075238;28;20138;-78
2021/08/19 10:23:25;;;;;;;8.02;2.50;;;716.90;1152.00;;;;;;5075660;28;20601;-79
2021/08/19 10:26:02;;;;;;;3.00;1.85;;;717.30;1126.40;;;;;;5074874;28;20859;-79
2021/08/19 10:28:43;;;;;;;3.55;2.03;;;717.50;1152.00;;;;;;5074350;28;20029;-79
2021/08/19 10:31:09;;;;;;;3.47;2.15;;;742.40;1126.40;;;;;;5073761;28;20026;-79
2021/08/19 10:33:37;;;;;;;3.97;2.35;;;717.20;1100.80;;;;;;5074531;28;20024;-78
2021/08/19 10:36:12;;;;;;;5.70;1.67;;;717.50;1100.80;;;;;;5074442;28;20021;-78
2021/08/19 10:38:39;;;;;;;3.17;2.13;;;717.70;1075.20;;;;;;5072050;28;20024;-77
2021/08/19 10:41:44;;;;;;;4.75;2.38;;;742.60;1100.80;;;;;;5073641;28;20254;-77
2021/08/19 10:44:10;;;;;;;4.13;2.10;;;742.50;1075.20;;;;;;5062123;28;20045;-77
2021/08/19 10:46:56;;;;;;;3.35;2.10;;;742.60;1075.20;;;;;;5074660;28;20500;-76
2021/08/19 10:49:36;;;;;;;9.73;2.20;;;742.90;1024.00;;;;;;5071325;28;20033;-77
2021/08/19 10:52:08;;;;;;;7.70;2.20;;;742.80;1075.20;;;;;;5071585;28;20146;-77
2021/08/19 10:54:36;;;;;;;5.15;2.30;;;742.80;1049.60;;;;;;5072594;28;20076;-78
2021/08/19 10:57:30;;;;;;;4.68;1.88;;;742.90;1049.60;;;;;;5086102;28;20115;-78
2021/08/19 11:00:00;;;;;;;4.47;2.15;;;743.10;1024.00;;;;;;5062346;28;20504;-77
2021/08/19 11:02:46;;;;;;;4.25;1.90;;;743.10;1049.60;;;;;;5065286;28;20032;-79
2021/08/19 11:05:31;;;;;;;5.85;2.10;;;743.30;1024.00;;;;;;5071297;28;20098;-78
2021/08/19 11:07:59;;;;;;;3.20;1.52;;;743.30;1049.60;;;;;;5072672;28;20028;-79
2021/08/19 11:10:30;;;;;;;6.05;2.08;;;768.00;998.40;;;;;;5073111;28;20473;-79
2021/08/19 11:13:04;;;;;;;4.60;1.92;;;768.00;1024.00;;;;;;5074502;28;20075;-79
2021/08/19 11:15:31;;;;;;;3.15;2.05;;;768.10;1024.00;;;;;;5075875;28;20067;-80
2021/08/19 11:17:58;;;;;;;3.30;1.80;;;743.30;972.80;;;;;;5075051;28;20032;-79
2021/08/19 11:20:35;;;;;;;4.55;2.10;;;768.00;998.40;;;;;;5078685;28;20403;-78
2021/08/19 11:23:11;;;;;;;4.47;1.70;;;743.10;1049.60;;;;;;5084311;28;20412;-79
2021/08/19 11:25:42;;;;;;;5.22;2.15;;;742.60;1075.20;;;;;;5079177;28;20035;-78
2021/08/19 11:28:17;;;;;;;2.63;1.80;;;742.40;1049.60;;;;;;5071070;28;20492;-75
2021/08/19 11:30:50;;;;;;;3.67;1.80;;;717.20;1075.20;;;;;;5073590;28;20020;-78
2021/08/19 11:33:25;;;;;;;4.47;1.52;;;717.40;1049.60;;;;;;5072537;28;20009;-78
2021/08/19 11:35:59;;;;;;;5.30;2.33;;;742.50;1075.20;;;;;;5070774;28;20039;-76
2021/08/19 11:38:27;;;;;;;2.63;1.73;;;742.90;1024.00;;;;;;5073172;28;20052;-82
2021/08/19 11:40:56;;;;;;;3.13;2.00;;;743.10;1024.00;;;;;;5071618;28;20123;-78
2021/08/19 11:43:30;;;;;;;3.38;2.00;;;768.00;1024.00;;;;;;5073075;28;20051;-76
2021/08/19 11:46:19;;;;;;;3.65;2.05;;;768.40;1024.00;;;;;;5072980;28;20032;-80
2021/08/19 11:49:08;;;;;;;4.18;1.60;;;768.20;1024.00;;;;;;5069711;28;20040;-79
2021/08/19 11:51:40;;;;;;;6.55;2.63;;;743.10;1024.00;;;;;;5071505;28;20020;-77
2021/08/19 11:54:07;;;;;;;3.13;1.90;;;742.80;1049.60;;;;;;5069750;28;20123;-79
2021/08/19 11:56:38;;;;;;;2.83;2.03;;;742.50;1049.60;;;;;;5072827;28;20027;-78
2021/08/19 11:59:10;;;;;;;3.05;1.83;;;742.90;1049.60;;;;;;5072034;28;20025;-78
2021/08/19 12:01:37;;;;;;;4.22;2.00;;;743.10;1024.00;;;;;;5070043;28;20028;-79
2021/08/19 12:04:04;;;;;;;3.08;2.05;;;743.20;1024.00;;;;;;5071708;28;20068;-77
2021/08/19 12:06:34;;;;;;;2.60;1.88;;;743.30;998.40;;;;;;5072642;28;20024;-77
2021/08/19 12:09:05;;;;;;;3.33;1.80;;;768.20;1024.00;;;;;;5070016;28;20088;-78
2021/08/19 12:11:36;;;;;;;4.63;1.85;;;768.50;947.20;;;;;;5072646;28;20194;-77
2021/08/19 12:14:03;;;;;;;3.53;2.05;;;768.70;972.80;;;;;;5070662;28;20023;-76
2021/08/19 12:16:30;;;;;;;3.30;2.25;;;768.90;947.20;;;;;;5071339;28;20100;-76
2021/08/19 12:19:16;;;;;;;6.85;2.28;;;768.90;972.80;;;;;;5072321;28;20024;-77
2021/08/19 12:21:54;;;;;;;8.40;2.72;;;793.60;972.80;;;;;;5070374;28;20135;-78
2021/08/19 12:24:21;;;;;;;2.63;1.70;;;793.90;972.80;;;;;;5070111;28;20045;-77
2021/08/19 12:27:00;;;;;;;2.90;2.08;;;794.00;998.40;;;;;;5071650;28;20031;-76
2021/08/19 12:29:26;;;;;;;4.60;2.03;;;793.90;998.40;;;;;;5072932;28;20020;-82
2021/08/19 12:31:53;;;;;;;3.95;2.45;;;793.80;998.40;;;;;;5072191;28;20021;-80
2021/08/19 12:34:19;;;;;;;4.70;1.98;;;794.00;947.20;;;;;;5072692;28;20028;-79
2021/08/19 12:36:48;;;;;;;5.13;2.08;;;793.70;972.80;;;;;;5072893;28;20017;-78
2021/08/19 12:39:15;;;;;;;3.25;1.92;;;793.90;947.20;;;;;;5073071;28;20024;-81
2021/08/19 12:41:41;;;;;;;5.90;2.40;;;794.00;972.80;;;;;;5072989;28;20020;-79
2021/08/19 12:44:09;;;;;;;5.97;2.40;;;794.00;998.40;;;;;;5072717;28;20108;-81
2021/08/19 12:46:41;;;;;;;6.80;2.42;;;794.00;972.80;;;;;;5072166;28;20078;-77
2021/08/19 12:49:29;;;;;;;2.92;2.00;;;794.00;972.80;;;;;;5072765;28;20066;-77
2021/08/19 12:52:14;;;;;;;4.72;2.05;;;793.80;972.80;;;;;;5072237;28;20539;-79
2021/08/19 12:54:52;;;;;;;3.20;1.98;;;793.80;947.20;;;;;;5069099;28;20048;-78
2021/08/19 12:57:37;;;;;;;4.10;2.25;;;793.90;972.80;;;;;;5071862;28;20521;-79
2021/08/19 13:00:12;;;;;;;5.32;2.10;;;793.90;998.40;;;;;;5069639;28;20066;-80
2021/08/19 13:02:38;;;;;;;3.05;1.75;;;793.90;972.80;;;;;;5071110;28;20025;-79
2021/08/19 13:05:05;;;;;;;5.63;2.08;;;793.80;972.80;;;;;;5071925;28;20069;-78
2021/08/19 13:07:31;;;;;;;5.88;2.22;;;768.90;972.80;;;;;;5072181;28;20020;-76
2021/08/19 13:09:57;;;;;;;2.55;1.77;;;768.40;998.40;;;;;;5071821;28;20525;-77
2021/08/19 13:12:25;;;;;;;3.50;2.08;;;768.80;972.80;;;;;;5070503;28;20040;-78
2021/08/19 13:14:52;;;;;;;6.45;2.90;;;793.70;972.80;;;;;;5071707;28;20063;-77
2021/08/19 13:17:18;;;;;;;3.78;2.28;;;793.70;998.40;;;;;;5071030;28;20023;-77
2021/08/19 13:19:45;;;;;;;3.80;2.10;;;793.70;998.40;;;;;;5071496;28;20024;-77
2021/08/19 13:22:12;;;;;;;5.30;2.20;;;793.90;972.80;;;;;;5071557;28;20021;-76
2021/08/19 13:24:38;;;;;;;4.20;2.20;;;793.80;972.80;;;;;;5070877;28;20535;-77
2021/08/19 13:27:04;;;;;;;3.72;2.15;;;793.70;972.80;;;;;;5071589;28;20021;-77
2021/08/19 13:29:30;;;;;;;2.58;1.75;;;793.70;998.40;;;;;;5071958;28;20025;-74
2021/08/19 13:31:55;;;;;;;7.05;2.17;;;793.80;972.80;;;;;;5075569;28;20078;-76
2021/08/19 13:34:21;;;;;;;3.72;2.17;;;793.90;998.40;;;;;;5075411;28;20029;-77
2021/08/19 13:36:47;;;;;;;2.80;1.85;;;793.90;972.80;;;;;;5075600;28;20462;-77
2021/08/19 13:39:13;;;;;;;3.97;1.67;;;794.10;972.80;;;;;;5075396;28;20046;-78
2021/08/19 13:41:38;;;;;;;7.28;2.70;;;794.50;921.60;;;;;;5075318;28;20470;-79
2021/08/19 13:44:04;;;;;;;5.32;2.13;;;794.00;972.80;;;;;;5075189;28;20473;-80
2021/08/19 13:46:30;;;;;;;4.82;2.17;;;794.00;972.80;;;;;;5074526;28;20021;-79
2021/08/19 13:48:58;;;;;;;3.08;2.08;;;793.90;972.80;;;;;;5074757;28;20089;-82
2021/08/19 13:51:24;;;;;;;3.42;1.90;;;793.90;972.80;;;;;;5078980;28;20497;-79
2021/08/19 13:53:49;;;;;;;5.72;2.17;;;794.00;947.20;;;;;;5072669;28;20056;-79
2021/08/19 13:56:15;;;;;;;4.38;2.40;;;793.90;972.80;;;;;;5074238;28;20023;-77
2021/08/19 13:58:42;;;;;;;3.40;1.88;;;794.00;921.60;;;;;;5074369;28;20098;-77
2021/08/19 14:01:07;;;;;;;6.68;1.70;;;794.20;921.60;;;;;;5074446;28;20473;-76
2021/08/19 14:03:33;;;;;;;2.90;1.80;;;794.00;947.20;;;;;;5071339;28;20044;-77
2021/08/19 14:05:59;;;;;;;3.40;1.90;;;793.70;972.80;;;;;;5074307;28;20074;-78
2021/08/19 14:08:25;;;;;;;3.45;1.77;;;768.80;947.20;;;;;;5074164;28;20024;-77
2021/08/19 14:10:50;;;;;;;5.50;1.90;;;793.60;972.80;;;;;;5072174;28;20024;-76
2021/08/19 14:13:16;;;;;;;3.25;2.22;;;793.60;947.20;;;;;;5069040;28;20031;-76
2021/08/19 14:15:42;;;;;;;6.07;2.10;;;793.90;947.20;;;;;;5074763;28;20035;-77
2021/08/19 14:18:07;;;;;;;2.40;1.70;;;793.70;972.80;;;;;;5074230;28;20032;-76
2021/08/19 14:20:33;;;;;;;2.58;1.77;;;768.80;947.20;;;;;;5073454;28;20024;-78
2021/08/19 14:22:59;;;;;;;3.58;2.10;;;768.70;947.20;;;;;;5073076;28;20059;-77
2021/08/19 14:25:25;;;;;;;2.55;1.70;;;768.80;947.20;;;;;;5072986;28;20025;-78
2021/08/19 14:27:51;;;;;;;3.15;1.98;;;793.60;947.20;;;;;;5073416;28;20657;-78
2021/08/19 14:30:17;;;;;;;5.95;2.00;;;793.60;972.80;;;;;;5073492;28;20027;-77
2021/08/19 14:32:43;;;;;;;4.63;1.90;;;793.60;947.20;;;;;;5073563;28;20024;-77
2021/08/19 14:35:09;;;;;;;3.35;1.60;;;793.60;947.20;;;;;;5075003;28;20025;-76
2021/08/19 14:37:34;;;;;;;6.88;1.70;;;768.80;947.20;;;;;;5074976;28;20476;-76
2021/08/19 14:40:00;;;;;;;7.32;2.05;;;768.50;947.20;;;;;;5074912;28;20099;-79
2021/08/19 14:42:27;;;;;;;6.13;1.95;;;768.40;921.60;;;;;;5086102;28;20013;-76
2021/08/19 14:44:53;;;;;;;3.38;1.63;;;768.40;947.20;;;;;;5081619;28;20090;-77
2021/08/19 14:47:19;;;;;;;3.88;1.85;;;768.40;921.60;;;;;;5074268;28;20024;-76
2021/08/19 14:49:44;;;;;;;3.55;1.60;;;768.40;947.20;;;;;;5074009;28;20028;-77
2021/08/19 14:52:10;;;;;;;4.45;1.50;;;768.30;947.20;;;;;;5074658;28;20096;-76
2021/08/19 14:54:36;;;;;;;2.92;1.70;;;768.40;947.20;;;;;;5074117;28;20072;-75
2021/08/19 14:57:02;;;;;;;5.68;2.22;;;768.40;947.20;;;;;;5074508;28;20024;-76
2021/08/19 14:59:29;;;;;;;5.15;3.05;;;768.10;972.80;;;;;;5074628;28;20367;-79
2021/08/19 15:01:56;;;;;;;2.80;1.42;;;768.10;947.20;;;;;;5074449;28;20421;-77
2021/08/19 15:04:21;;;;;;;4.88;2.00;;;768.40;947.20;;;;;;5073758;28;20037;-77
2021/08/19 15:06:47;;;;;;;4.57;1.80;;;768.30;947.20;;;;;;5074364;28;20119;-79